createdAt,value
2022-10-05T00:00:07.178Z,100744.92
2022-10-05T00:04:33.036Z,100749.99
2022-10-05T00:08:36.553Z,100749.66
2022-10-05T00:12:39.863Z,100747.55
2022-10-05T00:16:43.349Z,100751.09
2022-10-05T00:20:48.627Z,100751.17
2022-10-05T00:24:58.086Z,100753.91
2022-10-05T00:29:02.095Z,100749.16
2022-10-05T00:33:06.168Z,100738.86
2022-10-05T00:37:09.880Z,100736.81
2022-10-05T00:41:30.152Z,100736.38
2022-10-05T00:45:40.887Z,100733.65
2022-10-05T00:50:03.497Z,100732.58
2022-10-05T00:54:17.445Z,100737.22
2022-10-05T00:58:30.865Z,100735.70
2022-10-05T01:03:06.327Z,100728.86
2022-10-05T01:07:44.984Z,100723.02
2022-10-05T01:12:09.418Z,100721.80
2022-10-05T01:16:27.433Z,100727.92
2022-10-05T01:20:51.795Z,100736.54
2022-10-05T01:25:13.714Z,100739.08
2022-10-05T01:29:29.053Z,100736.85
2022-10-05T01:33:58.847Z,100743.39
2022-10-05T01:38:25.883Z,100752.99
2022-10-05T01:42:59.857Z,100753.36
2022-10-05T01:47:28.137Z,100749.36
2022-10-05T01:51:43.764Z,100752.81
2022-10-05T01:56:09.902Z,100749.92
2022-10-05T02:00:16.892Z,100749.41
2022-10-05T02:09:14.756Z,100755.89
2022-10-05T02:13:53.538Z,100754.62
2022-10-05T02:18:07.119Z,100749.44
2022-10-05T02:22:31.006Z,100738.65
2022-10-05T02:26:37.378Z,100736.27
2022-10-05T02:30:47.073Z,100723.16
2022-10-05T02:34:50.568Z,100713.13
2022-10-05T02:39:11.611Z,100730.98
2022-10-05T02:43:49.321Z,100741.11
2022-10-05T02:48:14.620Z,100738.62
2022-10-05T02:52:30.116Z,100722.39
2022-10-05T02:56:52.312Z,100717.98
2022-10-05T03:01:32.713Z,100717.24
2022-10-05T03:05:47.125Z,100705.05
2022-10-05T03:10:03.295Z,100709.38
2022-10-05T03:14:37.580Z,100708.27
2022-10-05T03:19:20.584Z,100714.05
2022-10-05T03:23:47.293Z,100711.68
2022-10-05T03:28:00.703Z,100733.80
2022-10-05T03:32:32.500Z,100724.88
2022-10-05T03:37:07.251Z,100699.02
2022-10-05T03:41:36.930Z,100722.35
2022-10-05T03:46:13.450Z,100734.68
2022-10-05T03:50:40.920Z,100735.09
2022-10-05T03:54:56.894Z,100733.52
2022-10-05T03:59:27.733Z,100746.69
2022-10-05T04:03:48.481Z,100740.27
2022-10-05T04:08:13.823Z,100726.85
2022-10-05T04:12:27.930Z,100720.91
2022-10-05T04:16:42.185Z,100722.79
2022-10-05T04:20:54.681Z,100717.70
2022-10-05T04:25:29.047Z,100716.23
2022-10-05T04:29:51.108Z,100721.27
2022-10-05T04:34:10.697Z,100731.71
2022-10-05T04:38:52.068Z,100731.09
2022-10-05T04:43:13.853Z,100723.33
2022-10-05T04:47:42.441Z,100706.64
2022-10-05T04:52:26.049Z,100699.53
2022-10-05T04:56:40.479Z,100702.67
2022-10-05T05:00:47.050Z,100715.05
2022-10-05T05:05:29.487Z,100715.11
2022-10-05T05:09:55.010Z,100714.66
2022-10-05T05:14:14.786Z,100710.67
2022-10-05T05:18:28.039Z,100717.92
2022-10-05T05:22:55.863Z,100723.38
2022-10-05T05:27:04.483Z,100730.99
2022-10-05T05:31:24.813Z,100745.80
2022-10-05T05:36:01.349Z,100751.78
2022-10-05T05:40:25.793Z,100755.94
2022-10-05T05:44:43.147Z,100754.48
2022-10-05T05:48:47.835Z,100755.80
2022-10-05T05:52:59.132Z,100759.40
2022-10-05T05:57:15.893Z,100757.41
2022-10-05T06:01:39.472Z,100768.66
2022-10-05T06:05:52.650Z,100772.15
2022-10-05T06:10:06.701Z,100765.67
2022-10-05T06:14:25.550Z,100770.91
2022-10-05T06:18:32.829Z,100756.96
2022-10-05T06:22:42.116Z,100757.79
2022-10-05T06:26:55.133Z,100752.27
2022-10-05T06:31:24.692Z,100749.51
2022-10-05T06:35:39.958Z,100746.73
2022-10-05T06:40:01.292Z,100759.16
2022-10-05T06:44:17.039Z,100774.38
2022-10-05T06:48:54.962Z,100768.80
2022-10-05T06:53:47.883Z,100766.24
2022-10-05T06:58:28.027Z,100773.91
2022-10-05T07:02:50.121Z,100766.85
2022-10-05T07:07:06.242Z,100757.49
2022-10-05T07:11:32.135Z,100769.01
2022-10-05T07:15:54.013Z,100763.60
2022-10-05T07:20:38.513Z,100773.79
2022-10-05T07:25:06.181Z,100783.67
2022-10-05T07:29:31.850Z,100781.14
2022-10-05T07:34:03.564Z,100777.23
2022-10-05T07:38:33.226Z,100764.71
2022-10-05T07:42:52.001Z,100765.75
2022-10-05T07:47:15.585Z,100766.38
2022-10-05T07:51:34.204Z,100759.84
2022-10-05T07:55:53.392Z,100753.45
2022-10-05T08:00:06.630Z,100747.26
2022-10-05T08:04:28.602Z,100751.65
2022-10-05T08:08:48.304Z,100752.05
2022-10-05T08:13:16.765Z,100745.73
2022-10-05T08:17:34.556Z,100754.65
2022-10-05T08:21:45.042Z,100751.48
2022-10-05T08:26:15.529Z,100741.56
2022-10-05T08:30:19.665Z,100744.54
2022-10-05T08:34:56.320Z,100742.29
2022-10-05T08:39:04.206Z,100743.77
2022-10-05T08:43:29.579Z,100737.25
2022-10-05T08:48:05.137Z,100732.08
2022-10-05T08:52:21.234Z,100733.63
2022-10-05T08:56:53.362Z,100736.46
2022-10-05T09:01:05.139Z,100730.13
2022-10-05T09:05:39.664Z,100724.36
2022-10-05T09:09:52.081Z,100717.48
2022-10-05T09:14:16.099Z,100713.25
2022-10-05T09:18:50.062Z,100711.59
2022-10-05T09:23:01.818Z,100702.98
2022-10-05T09:27:18.153Z,100701.13
2022-10-05T09:32:05.644Z,100700.64
2022-10-05T09:36:24.241Z,100703.05
2022-10-05T09:40:48.473Z,100703.36
2022-10-05T09:45:07.667Z,100701.94
2022-10-05T09:49:36.129Z,100700.46
2022-10-05T09:53:51.223Z,100701.34
2022-10-05T09:58:28.980Z,100697.45
2022-10-05T10:02:35.147Z,100695.34
2022-10-05T10:06:48.139Z,100695.36
2022-10-05T10:11:10.379Z,100695.85
2022-10-05T10:15:43.141Z,100687.12
2022-10-05T10:20:08.327Z,100685.38
2022-10-05T10:24:52.339Z,100682.21
2022-10-05T10:29:22.048Z,100676.61
2022-10-05T10:33:44.335Z,100681.53
2022-10-05T10:38:13.654Z,100680.66
2022-10-05T10:42:56.575Z,100666.99
2022-10-05T10:47:27.753Z,100656.13
2022-10-05T10:51:41.569Z,100660.83
2022-10-05T10:56:22.170Z,100664.46
2022-10-05T11:00:38.866Z,100676.73
2022-10-05T11:05:14.193Z,100681.64
2022-10-05T11:09:25.626Z,100683.47
2022-10-05T11:13:39.035Z,100675.78
2022-10-05T11:18:11.508Z,100668.66
2022-10-05T11:22:52.116Z,100673.64
2022-10-05T11:27:28.666Z,100654.59
2022-10-05T11:31:57.983Z,100640.95
2022-10-05T11:36:43.116Z,100636.58
2022-10-05T11:41:29.669Z,100633.14
2022-10-05T11:46:20.518Z,100626.27
2022-10-05T11:50:42.278Z,100626.66
2022-10-05T11:55:16.199Z,100621.11
2022-10-05T11:59:27.246Z,100606.05
2022-10-05T12:03:33.455Z,100600.68
2022-10-05T12:07:51.173Z,100601.77
2022-10-05T12:12:27.477Z,100608.77
2022-10-05T12:17:00.952Z,100620.02
2022-10-05T12:21:10.145Z,100625.25
2022-10-05T12:25:22.420Z,100619.24
2022-10-05T12:29:44.911Z,100617.39
2022-10-05T12:33:54.216Z,100624.64
2022-10-05T12:38:11.018Z,100633.07
2022-10-05T12:42:41.924Z,100619.48
2022-10-05T12:46:52.148Z,100612.00
2022-10-05T12:51:14.696Z,100613.13
2022-10-05T12:55:37.021Z,100603.25
2022-10-05T13:00:02.390Z,100597.60
2022-10-05T13:04:18.073Z,100597.42
2022-10-05T13:08:42.509Z,100595.08
2022-10-05T13:12:56.611Z,100603.48
2022-10-05T13:17:10.950Z,100594.70
2022-10-05T13:21:28.133Z,100585.73
2022-10-05T13:26:08.153Z,100582.95
2022-10-05T13:30:21.317Z,100586.20
2022-10-05T13:34:55.845Z,100582.20
2022-10-05T13:39:08.729Z,100582.48
2022-10-05T13:47:59.974Z,100587.34
2022-10-05T13:52:18.561Z,100585.14
2022-10-05T13:56:23.134Z,100580.37
2022-10-05T14:00:27.477Z,100578.58
2022-10-05T14:04:52.530Z,100572.94
2022-10-05T14:08:58.048Z,100574.61
2022-10-05T14:13:21.949Z,100569.98
2022-10-05T14:17:41.470Z,100572.15
2022-10-05T14:22:02.452Z,100570.86
2022-10-05T14:26:19.839Z,100575.88
2022-10-05T14:30:26.024Z,100579.52
2022-10-05T14:34:35.863Z,100582.40
2022-10-05T14:38:55.399Z,100583.18
2022-10-05T14:43:17.218Z,100580.11
2022-10-05T14:47:24.481Z,100574.34
2022-10-05T14:51:32.314Z,100566.07
2022-10-05T14:55:47.958Z,100566.80
2022-10-05T15:00:18.889Z,100574.16
2022-10-05T15:04:27.817Z,100587.80
2022-10-05T15:08:49.090Z,100584.89
2022-10-05T15:13:15.850Z,100578.02
2022-10-05T15:17:40.801Z,100579.74
2022-10-05T15:22:02.085Z,100572.92
2022-10-05T15:26:08.144Z,100563.67
2022-10-05T15:30:18.441Z,100563.91
2022-10-05T15:34:30.371Z,100563.85
2022-10-05T15:38:41.733Z,100565.83
2022-10-05T15:42:45.578Z,100562.32
2022-10-05T15:47:39.014Z,100561.06
2022-10-05T15:51:56.766Z,100557.27
2022-10-05T15:56:20.853Z,100555.80
2022-10-05T16:00:27.212Z,100559.17
2022-10-05T16:04:42.896Z,100555.79
2022-10-05T16:08:55.003Z,100554.33
2022-10-05T16:13:01.070Z,100552.16
2022-10-05T16:17:10.991Z,100551.76
2022-10-05T16:21:44.273Z,100551.87
2022-10-05T16:26:02.865Z,100550.07
2022-10-05T16:30:09.771Z,100541.07
2022-10-05T16:34:31.881Z,100537.39
2022-10-05T16:39:14.465Z,100542.67
2022-10-05T16:43:23.282Z,100562.55
2022-10-05T16:47:37.934Z,100566.95
2022-10-05T16:52:07.153Z,100547.92
2022-10-05T16:56:13.924Z,100542.56
2022-10-05T17:00:38.981Z,100543.27
2022-10-05T17:05:01.144Z,100551.13
2022-10-05T17:09:22.862Z,100550.54
2022-10-05T17:13:41.350Z,100554.03
2022-10-05T17:18:16.820Z,100551.06
2022-10-05T17:22:34.737Z,100544.91
2022-10-05T17:26:57.829Z,100533.61
2022-10-05T17:31:20.706Z,100531.87
2022-10-05T17:35:52.165Z,100525.67
2022-10-05T17:39:56.395Z,100517.83
2022-10-05T17:44:21.447Z,100520.30
2022-10-05T17:49:06.842Z,100519.39
2022-10-05T17:53:53.769Z,100519.29
2022-10-05T17:58:00.043Z,100515.69
2022-10-05T18:02:27.084Z,100516.33
2022-10-05T18:06:33.994Z,100519.49
2022-10-05T18:10:41.270Z,100523.21
2022-10-05T18:15:05.862Z,100527.45
2022-10-05T18:19:17.012Z,100533.36
2022-10-05T18:23:25.744Z,100529.39
2022-10-05T18:27:50.665Z,100525.23
2022-10-05T18:32:03.075Z,100524.41
2022-10-05T18:36:29.962Z,100519.41
2022-10-05T18:40:50.583Z,100513.63
2022-10-05T18:45:23.056Z,100508.04
2022-10-05T18:50:08.138Z,100498.06
2022-10-05T18:54:31.527Z,100494.52
2022-10-05T18:58:41.345Z,100498.05
2022-10-05T19:02:52.433Z,100493.80
2022-10-05T19:07:30.270Z,100491.05
2022-10-05T19:11:46.787Z,100487.95
2022-10-05T19:16:11.946Z,100491.31
2022-10-05T19:20:34.514Z,100489.38
2022-10-05T19:25:06.406Z,100493.75
2022-10-05T19:29:37.208Z,100492.02
2022-10-05T19:33:56.293Z,100493.94
2022-10-05T19:38:14.512Z,100490.60
2022-10-05T19:42:42.722Z,100502.17
2022-10-05T19:47:05.580Z,100505.92
2022-10-05T19:51:33.115Z,100501.34
2022-10-05T19:55:44.229Z,100498.73
2022-10-05T19:59:48.746Z,100492.72
2022-10-05T20:03:54.101Z,100496.81
2022-10-05T20:07:58.285Z,100504.13
2022-10-05T20:12:01.783Z,100502.38
2022-10-05T20:16:29.294Z,100507.96
2022-10-05T20:20:47.157Z,100510.47
2022-10-05T20:24:58.396Z,100511.22
2022-10-05T20:29:01.694Z,100512.70
2022-10-05T20:33:10.794Z,100516.99
2022-10-05T20:37:16.914Z,100520.86
2022-10-05T20:41:20.268Z,100512.24
2022-10-05T20:45:23.906Z,100510.55
2022-10-05T20:49:28.838Z,100512.75
2022-10-05T20:53:32.264Z,100509.86
2022-10-05T20:57:38.801Z,100507.97
2022-10-05T21:01:46.471Z,100516.21
2022-10-05T21:05:55.414Z,100518.02
2022-10-05T21:09:59.340Z,100521.63
2022-10-05T21:14:05.681Z,100528.50
2022-10-05T21:18:09.287Z,100530.30
2022-10-05T21:22:12.612Z,100526.71
2022-10-05T21:26:16.880Z,100529.84
2022-10-05T21:30:20.359Z,100533.50
2022-10-05T21:34:23.722Z,100532.16
2022-10-05T21:38:28.508Z,100532.10
2022-10-05T21:42:32.500Z,100546.30
2022-10-05T21:46:36.952Z,100541.92
2022-10-05T21:50:40.997Z,100546.95
2022-10-05T21:54:44.398Z,100547.06
2022-10-05T21:58:48.537Z,100551.64
2022-10-05T22:02:51.875Z,100541.60
2022-10-05T22:06:56.506Z,100541.05
2022-10-05T22:11:01.859Z,100544.80
2022-10-05T22:15:07.629Z,100544.97
2022-10-05T22:19:18.986Z,100548.06
2022-10-05T22:23:22.357Z,100548.99
2022-10-05T22:27:29.563Z,100548.86
2022-10-05T22:31:33.067Z,100548.03
2022-10-05T22:35:37.021Z,100544.33
2022-10-05T22:39:40.770Z,100545.67
2022-10-05T22:43:44.618Z,100547.00
2022-10-05T22:47:48.239Z,100551.26
2022-10-05T22:51:51.711Z,100550.72
2022-10-05T22:55:55.020Z,100552.97
2022-10-05T22:59:58.341Z,100551.16
2022-10-05T23:04:02.097Z,100554.67
2022-10-05T23:08:05.415Z,100560.46
2022-10-05T23:12:08.721Z,100557.26
2022-10-05T23:16:17.490Z,100558.86
2022-10-05T23:20:20.823Z,100559.14
2022-10-05T23:24:24.153Z,100558.55
2022-10-05T23:28:29.061Z,100565.48
2022-10-05T23:32:32.887Z,100573.04
2022-10-05T23:36:36.267Z,100570.86
2022-10-05T23:40:39.572Z,100568.94
2022-10-05T23:44:42.938Z,100566.64
2022-10-05T23:48:46.289Z,100570.44
2022-10-05T23:52:49.695Z,100570.66
2022-10-05T23:56:53.065Z,100574.98
